createdAt,value
2023-03-27T00:00:16.377Z,84.10
2023-03-27T00:02:44.541Z,83.85
2023-03-27T00:05:12.531Z,84.58
2023-03-27T00:07:41.536Z,86.49
2023-03-27T00:10:12.562Z,86.12
2023-03-27T00:12:40.447Z,85.19
2023-03-27T00:15:09.807Z,86.25
2023-03-27T00:17:38.146Z,86.68
2023-03-27T00:20:07.117Z,86.92
2023-03-27T00:22:36.068Z,84.89
2023-03-27T00:25:05.236Z,82.92
2023-03-27T00:27:34.602Z,82.50
2023-03-27T00:30:05.174Z,82.89
2023-03-27T00:32:33.438Z,82.41
2023-03-27T00:35:01.501Z,83.13
2023-03-27T00:37:29.413Z,82.00
2023-03-27T00:39:57.358Z,80.87
2023-03-27T00:42:26.393Z,80.37
2023-03-27T00:44:55.771Z,80.65
2023-03-27T00:47:31.680Z,80.69
2023-03-27T00:50:03.195Z,80.26
2023-03-27T00:52:32.528Z,81.02
2023-03-27T00:55:04.323Z,80.45
2023-03-27T00:57:32.641Z,80.26
2023-03-27T01:00:10.977Z,82.28
2023-03-27T01:02:39.099Z,82.51
2023-03-27T01:05:09.268Z,82.83
2023-03-27T01:07:38.040Z,81.21
2023-03-27T01:10:07.327Z,80.35
2023-03-27T01:12:43.360Z,80.13
2023-03-27T01:15:23.952Z,79.52
2023-03-27T01:18:03.670Z,79.82
2023-03-27T01:21:37.683Z,82.93
2023-03-27T01:25:02.686Z,82.63
2023-03-27T01:27:53.929Z,79.65
2023-03-27T01:30:30.330Z,80.26
2023-03-27T01:33:25.870Z,78.89
2023-03-27T01:36:15.711Z,78.12
2023-03-27T01:39:08.190Z,77.75
2023-03-27T01:41:44.285Z,77.53
2023-03-27T01:44:16.657Z,77.70
2023-03-27T01:46:51.339Z,77.00
2023-03-27T01:49:26.440Z,75.76
2023-03-27T01:51:59.659Z,75.20
2023-03-27T01:54:33.102Z,74.00
2023-03-27T01:57:05.449Z,75.01
2023-03-27T01:59:38.855Z,74.71
2023-03-27T02:02:12.844Z,74.03
2023-03-27T02:04:45.235Z,74.34
2023-03-27T02:07:19.773Z,72.94
2023-03-27T02:09:52.507Z,71.72
2023-03-27T02:12:25.131Z,73.29
2023-03-27T02:14:57.721Z,72.37
2023-03-27T02:17:50.823Z,73.56
2023-03-27T02:20:20.302Z,71.91
2023-03-27T02:22:50.045Z,71.69
2023-03-27T02:25:29.015Z,71.17
2023-03-27T02:28:18.410Z,71.48
2023-03-27T02:31:30.780Z,72.10
2023-03-27T02:33:55.936Z,72.74
2023-03-27T02:36:31.990Z,72.49
2023-03-27T02:39:03.374Z,71.01
2023-03-27T02:41:42.322Z,71.67
2023-03-27T02:44:17.266Z,72.20
2023-03-27T02:46:52.231Z,70.72
2023-03-27T02:49:25.458Z,71.47
2023-03-27T02:51:58.680Z,71.90
2023-03-27T02:54:30.047Z,70.17
2023-03-27T02:57:04.677Z,70.28
2023-03-27T02:59:40.576Z,71.99
2023-03-27T03:02:13.925Z,72.67
2023-03-27T03:04:46.316Z,71.53
2023-03-27T03:07:16.172Z,71.26
2023-03-27T03:09:45.304Z,71.33
2023-03-27T03:12:14.599Z,71.05
2023-03-27T03:14:45.342Z,71.33
2023-03-27T03:17:13.742Z,70.82
2023-03-27T03:19:42.075Z,72.32
2023-03-27T03:22:10.828Z,70.40
2023-03-27T03:24:42.349Z,70.84
2023-03-27T03:27:12.041Z,71.30
2023-03-27T03:29:41.325Z,70.12
2023-03-27T03:32:09.245Z,69.90
2023-03-27T03:34:37.152Z,69.17
2023-03-27T03:37:05.327Z,70.46
2023-03-27T03:39:33.286Z,69.54
2023-03-27T03:42:01.660Z,70.09
2023-03-27T03:44:29.663Z,69.61
2023-03-27T03:46:58.988Z,69.88
2023-03-27T03:49:27.058Z,69.63
2023-03-27T03:52:03.586Z,70.00
2023-03-27T03:54:32.985Z,68.76
2023-03-27T03:57:01.141Z,68.89
2023-03-27T03:59:30.187Z,68.80
2023-03-27T04:02:00.645Z,68.63
2023-03-27T04:04:29.004Z,68.16
2023-03-27T04:06:58.336Z,67.07
2023-03-27T04:09:26.388Z,67.42
2023-03-27T04:11:54.413Z,66.89
2023-03-27T04:14:22.374Z,66.52
2023-03-27T04:16:50.366Z,68.08
2023-03-27T04:19:19.849Z,66.15
2023-03-27T04:21:48.516Z,67.75
2023-03-27T04:24:18.435Z,66.75
2023-03-27T04:26:46.751Z,65.14
2023-03-27T04:29:15.046Z,65.95
2023-03-27T04:31:46.773Z,64.74
2023-03-27T04:34:14.853Z,65.11
2023-03-27T04:36:44.177Z,64.65
2023-03-27T04:39:12.277Z,64.24
2023-03-27T04:41:40.263Z,63.65
2023-03-27T04:44:09.184Z,65.05
2023-03-27T04:46:37.428Z,65.23
2023-03-27T04:49:06.098Z,64.63
2023-03-27T04:51:34.085Z,64.94
2023-03-27T04:54:05.197Z,64.76
2023-03-27T04:56:33.934Z,64.32
2023-03-27T04:59:03.294Z,66.26
2023-03-27T05:01:31.569Z,63.38
2023-03-27T05:04:02.567Z,65.27
2023-03-27T05:06:30.756Z,64.02
2023-03-27T05:08:58.741Z,65.08
2023-03-27T05:11:28.520Z,64.07
2023-03-27T05:13:56.514Z,64.57
2023-03-27T05:16:26.610Z,65.25
2023-03-27T05:18:54.758Z,65.61
2023-03-27T05:21:22.692Z,64.07
2023-03-27T05:23:50.720Z,65.15
2023-03-27T05:26:19.141Z,63.42
2023-03-27T05:28:51.298Z,63.09
2023-03-27T05:31:19.695Z,63.71
2023-03-27T05:33:47.681Z,64.13
2023-03-27T05:36:16.844Z,65.26
2023-03-27T05:38:44.808Z,64.23
2023-03-27T05:41:12.996Z,63.46
2023-03-27T05:43:40.961Z,64.45
2023-03-27T05:46:10.547Z,64.22
2023-03-27T05:48:38.736Z,62.02
2023-03-27T05:51:07.384Z,62.94
2023-03-27T05:53:36.428Z,60.91
2023-03-27T05:56:04.621Z,62.90
2023-03-27T05:58:32.610Z,61.48
2023-03-27T06:01:01.554Z,61.65
2023-03-27T06:03:31.845Z,61.81
2023-03-27T06:06:01.312Z,62.15
2023-03-27T06:08:29.987Z,61.73
2023-03-27T06:10:58.850Z,62.58
2023-03-27T06:13:27.630Z,61.23
2023-03-27T06:15:56.747Z,61.57
2023-03-27T06:18:25.293Z,61.88
2023-03-27T06:20:55.076Z,60.64
2023-03-27T06:23:23.301Z,62.65
2023-03-27T06:25:53.065Z,61.10
2023-03-27T06:28:21.639Z,60.45
2023-03-27T06:30:50.788Z,61.52
2023-03-27T06:33:19.162Z,61.58
2023-03-27T06:35:53.193Z,61.86
2023-03-27T06:38:23.748Z,60.78
2023-03-27T06:40:51.762Z,60.64
2023-03-27T06:43:22.472Z,60.19
2023-03-27T06:45:51.960Z,59.81
2023-03-27T06:48:22.630Z,58.13
2023-03-27T06:50:52.719Z,57.50
2023-03-27T06:53:27.677Z,56.96
2023-03-27T06:55:57.475Z,56.19
2023-03-27T06:58:27.481Z,57.87
2023-03-27T07:00:56.113Z,56.60
2023-03-27T07:03:25.913Z,55.99
2023-03-27T07:05:53.997Z,55.78
2023-03-27T07:08:25.575Z,55.28
2023-03-27T07:11:07.937Z,52.00
2023-03-27T07:13:41.031Z,53.42
2023-03-27T07:16:11.516Z,52.85
2023-03-27T07:18:39.576Z,54.58
2023-03-27T07:21:08.629Z,54.10
2023-03-27T07:23:38.089Z,51.63
2023-03-27T07:26:06.855Z,49.74
2023-03-27T07:28:38.595Z,51.58
2023-03-27T07:31:25.946Z,50.79
2023-03-27T07:33:59.845Z,52.13
2023-03-27T07:36:27.768Z,54.27
2023-03-27T07:38:57.228Z,56.10
2023-03-27T07:41:25.313Z,54.17
2023-03-27T07:43:53.271Z,56.70
2023-03-27T07:46:22.622Z,59.12
2023-03-27T07:48:51.056Z,57.48
2023-03-27T07:51:19.075Z,59.28
2023-03-27T07:53:47.534Z,59.51
2023-03-27T07:56:17.138Z,58.94
2023-03-27T07:58:45.131Z,57.17
2023-03-27T08:01:13.341Z,59.13
2023-03-27T08:03:41.904Z,60.12
2023-03-27T08:06:11.055Z,58.92
2023-03-27T08:08:39.051Z,57.38
2023-03-27T08:11:13.510Z,57.60
2023-03-27T08:13:49.175Z,56.11
2023-03-27T08:16:18.721Z,53.34
2023-03-27T08:18:47.529Z,54.98
2023-03-27T08:21:15.779Z,56.50
2023-03-27T08:23:43.690Z,54.83
2023-03-27T08:26:11.620Z,55.68
2023-03-27T08:28:39.714Z,53.56
2023-03-27T08:31:14.049Z,51.26
2023-03-27T08:33:43.255Z,50.67
2023-03-27T08:36:14.449Z,50.73
2023-03-27T08:38:43.311Z,51.18
2023-03-27T08:41:28.504Z,52.11
2023-03-27T08:43:57.743Z,52.27
2023-03-27T08:46:31.685Z,49.03
2023-03-27T08:49:05.147Z,47.19
2023-03-27T08:51:37.349Z,47.80
2023-03-27T08:54:09.313Z,47.09
2023-03-27T08:56:38.360Z,48.02
2023-03-27T08:59:12.668Z,46.18
2023-03-27T09:01:50.277Z,47.92
2023-03-27T09:04:32.355Z,45.08
2023-03-27T09:07:06.577Z,43.97
2023-03-27T09:09:52.916Z,43.23
2023-03-27T09:12:39.018Z,42.96
2023-03-27T09:15:12.617Z,42.49
2023-03-27T09:17:49.820Z,42.00
2023-03-27T09:20:21.814Z,42.21
2023-03-27T09:22:53.721Z,39.88
2023-03-27T09:25:28.771Z,41.45
2023-03-27T09:27:57.521Z,35.96
2023-03-27T09:30:28.718Z,39.13
2023-03-27T09:33:00.769Z,39.27
2023-03-27T09:35:28.840Z,38.89
2023-03-27T09:38:01.245Z,39.44
2023-03-27T09:40:33.867Z,38.90
2023-03-27T09:43:08.520Z,39.69
2023-03-27T09:45:40.777Z,38.63
2023-03-27T09:48:15.631Z,40.14
2023-03-27T09:50:47.403Z,39.38
2023-03-27T09:53:18.413Z,37.45
2023-03-27T09:55:53.317Z,38.20
2023-03-27T09:58:30.677Z,36.80
2023-03-27T10:01:17.047Z,37.58
2023-03-27T10:03:52.005Z,38.25
2023-03-27T10:06:27.834Z,38.11
2023-03-27T10:08:57.902Z,33.06
2023-03-27T10:11:28.714Z,33.15
2023-03-27T10:13:58.082Z,32.09
2023-03-27T10:16:28.011Z,33.51
2023-03-27T10:19:00.876Z,36.00
2023-03-27T10:21:33.283Z,34.43
2023-03-27T10:24:04.759Z,34.89
2023-03-27T10:26:35.138Z,37.21
2023-03-27T10:29:23.560Z,38.51
2023-03-27T10:31:53.913Z,36.76
2023-03-27T10:34:36.690Z,38.61
2023-03-27T10:37:20.384Z,39.01
2023-03-27T10:39:48.950Z,39.89
2023-03-27T10:42:19.157Z,38.23
2023-03-27T10:44:49.635Z,38.64
2023-03-27T10:47:21.325Z,40.33
2023-03-27T10:50:01.831Z,40.87
2023-03-27T10:52:38.119Z,40.70
2023-03-27T10:55:20.645Z,41.25
2023-03-27T10:57:53.974Z,40.97
2023-03-27T11:00:32.676Z,40.32
2023-03-27T11:03:06.486Z,40.59
2023-03-27T11:05:40.255Z,40.00
2023-03-27T11:08:12.886Z,38.15
2023-03-27T11:10:43.106Z,39.04
2023-03-27T11:13:16.402Z,40.38
2023-03-27T11:15:49.727Z,40.32
2023-03-27T11:18:22.867Z,41.60
2023-03-27T11:20:56.762Z,40.89
2023-03-27T11:23:32.255Z,42.04
2023-03-27T11:26:03.916Z,42.10
2023-03-27T11:28:43.009Z,42.77
2023-03-27T11:31:21.326Z,42.71
2023-03-27T11:33:53.968Z,43.80
2023-03-27T11:36:35.842Z,42.03
2023-03-27T11:39:16.610Z,44.29
2023-03-27T11:41:48.876Z,43.66
2023-03-27T11:44:16.946Z,41.67
2023-03-27T11:47:01.934Z,41.46
2023-03-27T11:50:10.899Z,41.12
2023-03-27T11:52:54.857Z,38.99
2023-03-27T11:55:26.542Z,41.43
2023-03-27T11:58:13.014Z,42.10
2023-03-27T12:00:49.799Z,43.58
2023-03-27T12:03:53.148Z,42.47
2023-03-27T12:06:26.789Z,44.12
2023-03-27T12:09:06.133Z,44.76
2023-03-27T12:11:39.523Z,45.25
2023-03-27T12:14:40.424Z,44.87
2023-03-27T12:17:26.463Z,46.62
2023-03-27T12:20:43.602Z,47.21
2023-03-27T12:23:39.776Z,47.81
2023-03-27T12:26:33.457Z,48.88
2023-03-27T12:29:23.906Z,47.54
2023-03-27T12:32:16.906Z,45.06
2023-03-27T12:34:54.439Z,41.77
2023-03-27T12:37:25.978Z,41.57
2023-03-27T12:39:56.389Z,44.32
2023-03-27T12:42:45.375Z,46.15
2023-03-27T12:45:19.560Z,46.16
2023-03-27T12:48:10.057Z,47.01
2023-03-27T12:50:44.884Z,52.55
2023-03-27T12:53:20.984Z,57.70
2023-03-27T12:55:49.457Z,61.10
2023-03-27T12:58:34.500Z,54.93
2023-03-27T13:01:03.993Z,55.32
2023-03-27T13:03:58.025Z,54.39
2023-03-27T13:06:40.614Z,57.79
2023-03-27T13:09:28.449Z,57.10
2023-03-27T13:12:11.330Z,57.04
2023-03-27T13:15:06.852Z,59.31
2023-03-27T13:18:05.406Z,59.21
2023-03-27T13:20:45.395Z,59.12
2023-03-27T13:23:26.752Z,59.45
2023-03-27T13:26:08.782Z,58.44
2023-03-27T13:28:39.226Z,61.27
2023-03-27T13:31:14.331Z,59.43
2023-03-27T13:33:46.561Z,61.00
2023-03-27T13:36:19.986Z,61.55
2023-03-27T13:39:10.208Z,63.26
2023-03-27T13:41:56.227Z,62.60
2023-03-27T13:44:35.563Z,64.53
2023-03-27T13:47:13.546Z,65.41
2023-03-27T13:50:09.116Z,64.99
2023-03-27T13:53:06.613Z,64.54
2023-03-27T13:56:07.511Z,64.70
2023-03-27T13:58:53.214Z,66.09
2023-03-27T14:01:34.990Z,67.07
2023-03-27T14:04:33.341Z,67.88
2023-03-27T14:07:43.628Z,69.48
2023-03-27T14:10:20.357Z,71.74
2023-03-27T14:12:59.474Z,72.36
2023-03-27T14:15:39.937Z,71.34
2023-03-27T14:18:31.522Z,73.67
2023-03-27T14:21:03.419Z,74.57
2023-03-27T14:23:37.378Z,75.61
2023-03-27T14:26:09.374Z,76.03
2023-03-27T14:28:49.314Z,76.66
2023-03-27T14:31:19.412Z,77.21
2023-03-27T14:33:51.678Z,75.98
2023-03-27T14:36:26.034Z,76.23
2023-03-27T14:38:54.610Z,75.34
2023-03-27T14:41:25.635Z,76.96
2023-03-27T14:43:56.986Z,75.08
2023-03-27T14:46:26.890Z,75.32
2023-03-27T14:48:58.121Z,76.16
2023-03-27T14:51:37.210Z,75.31
2023-03-27T14:54:08.052Z,74.78
2023-03-27T14:56:41.557Z,74.44
2023-03-27T14:59:14.685Z,75.00
2023-03-27T15:01:42.848Z,75.61
2023-03-27T15:04:12.752Z,74.46
2023-03-27T15:06:42.607Z,76.21
2023-03-27T15:09:15.774Z,75.95
2023-03-27T15:11:49.193Z,76.16
2023-03-27T15:14:20.794Z,76.10
2023-03-27T15:16:55.194Z,76.85
2023-03-27T15:19:25.835Z,76.49
2023-03-27T15:22:01.316Z,75.92
2023-03-27T15:24:36.774Z,76.66
2023-03-27T15:27:05.927Z,76.28
2023-03-27T15:29:40.828Z,75.93
2023-03-27T15:32:14.848Z,74.62
2023-03-27T15:34:47.752Z,75.82
2023-03-27T15:37:20.181Z,74.62
2023-03-27T15:40:09.091Z,74.46
2023-03-27T15:42:47.536Z,75.67
2023-03-27T15:45:17.803Z,77.40
2023-03-27T15:47:58.234Z,77.13
2023-03-27T15:50:28.029Z,75.22
2023-03-27T15:52:58.858Z,74.66
2023-03-27T15:55:40.762Z,74.65
2023-03-27T15:58:17.324Z,74.05
2023-03-27T16:00:48.817Z,76.10
2023-03-27T16:03:21.210Z,74.45
2023-03-27T16:05:50.216Z,74.33
2023-03-27T16:08:30.968Z,74.99
2023-03-27T16:11:00.648Z,75.40
2023-03-27T16:13:34.975Z,75.65
2023-03-27T16:16:05.953Z,75.72
2023-03-27T16:18:35.944Z,76.12
2023-03-27T16:21:09.679Z,75.43
2023-03-27T16:23:39.224Z,76.33
2023-03-27T16:26:09.222Z,77.44
2023-03-27T16:28:37.506Z,78.36
2023-03-27T16:31:12.994Z,77.60
2023-03-27T16:33:43.042Z,77.91
2023-03-27T16:36:13.391Z,78.19
2023-03-27T16:38:44.034Z,79.42
2023-03-27T16:41:14.538Z,81.91
2023-03-27T16:43:43.099Z,84.26
2023-03-27T16:46:19.515Z,86.11
2023-03-27T16:48:47.534Z,87.68
2023-03-27T16:51:15.742Z,88.18
2023-03-27T16:53:45.402Z,90.32
2023-03-27T16:56:13.656Z,91.89
2023-03-27T16:58:43.378Z,94.75
2023-03-27T17:01:11.772Z,99.75
2023-03-27T17:03:40.304Z,99.72
2023-03-27T17:06:11.528Z,99.88
2023-03-27T17:08:40.195Z,100.00
2023-03-27T17:11:12.095Z,99.93
2023-03-27T17:13:43.333Z,100.00
2023-03-27T17:16:12.150Z,100.00
2023-03-27T17:18:41.591Z,100.00
2023-03-27T17:21:10.448Z,100.00
2023-03-27T17:23:38.600Z,100.00
2023-03-27T17:26:09.061Z,100.00
2023-03-27T17:28:40.707Z,100.00
2023-03-27T17:31:08.843Z,100.00
2023-03-27T17:33:37.254Z,100.00
2023-03-27T17:36:09.964Z,100.00
2023-03-27T17:38:38.340Z,100.00
2023-03-27T17:41:08.635Z,100.00
2023-03-27T17:43:37.694Z,100.00
2023-03-27T17:46:08.973Z,100.00
2023-03-27T17:48:38.262Z,100.00
2023-03-27T17:51:09.711Z,100.00
2023-03-27T17:53:39.018Z,100.00
2023-03-27T17:56:08.565Z,100.00
2023-03-27T17:58:37.515Z,100.00
2023-03-27T18:01:18.725Z,100.00
2023-03-27T18:03:47.893Z,100.00
2023-03-27T18:06:17.469Z,100.00
2023-03-27T18:08:46.023Z,100.00
2023-03-27T18:11:16.284Z,100.00
2023-03-27T18:13:44.989Z,100.00
2023-03-27T18:16:13.111Z,100.00
2023-03-27T18:18:42.824Z,100.00
2023-03-27T18:21:11.004Z,100.00
2023-03-27T18:23:46.198Z,100.00
2023-03-27T18:26:15.944Z,100.00
2023-03-27T18:28:44.937Z,100.00
2023-03-27T18:31:13.843Z,100.00
2023-03-27T18:33:43.639Z,100.00
2023-03-27T18:36:12.366Z,100.00
2023-03-27T18:38:42.265Z,100.00
2023-03-27T18:41:11.095Z,100.00
2023-03-27T18:43:39.803Z,100.00
2023-03-27T18:46:08.823Z,100.00
2023-03-27T18:48:37.260Z,100.00
2023-03-27T18:51:07.729Z,100.00
2023-03-27T18:53:36.291Z,100.00
2023-03-27T18:56:05.023Z,100.00
2023-03-27T18:58:33.186Z,100.00
2023-03-27T19:01:01.590Z,100.00
2023-03-27T19:03:35.042Z,100.00
2023-03-27T19:06:05.368Z,100.00
2023-03-27T19:08:37.886Z,100.00
2023-03-27T19:11:07.155Z,100.00
2023-03-27T19:13:35.279Z,100.00
2023-03-27T19:16:14.549Z,100.00
2023-03-27T19:18:43.996Z,100.00
2023-03-27T19:21:12.113Z,100.00
2023-03-27T19:23:41.574Z,100.00
2023-03-27T19:26:11.231Z,100.00
2023-03-27T19:28:40.389Z,100.00
2023-03-27T19:31:09.843Z,100.00
2023-03-27T19:33:38.457Z,100.00
2023-03-27T19:36:08.153Z,100.00
2023-03-27T19:38:37.505Z,100.00
2023-03-27T19:41:10.754Z,100.00
2023-03-27T19:43:39.298Z,100.00
2023-03-27T19:48:39.755Z,100.00
2023-03-27T19:51:08.489Z,100.00
2023-03-27T19:53:37.780Z,100.00
2023-03-27T19:56:06.618Z,100.00
2023-03-27T19:58:36.505Z,100.00
2023-03-27T20:01:05.005Z,100.00
2023-03-27T20:03:33.546Z,100.00
2023-03-27T20:06:07.433Z,100.00
2023-03-27T20:08:38.291Z,100.00
2023-03-27T20:11:07.365Z,100.00
2023-03-27T20:13:49.054Z,100.00
2023-03-27T20:16:25.563Z,100.00
2023-03-27T20:19:03.488Z,100.00
2023-03-27T20:21:33.779Z,100.00
2023-03-27T20:24:01.957Z,100.00
2023-03-27T20:26:30.038Z,100.00
2023-03-27T20:28:59.563Z,100.00
2023-03-27T20:31:28.151Z,100.00
2023-03-27T20:33:56.628Z,100.00
2023-03-27T20:36:25.055Z,100.00
2023-03-27T20:38:53.626Z,100.00
2023-03-27T20:41:22.094Z,100.00
2023-03-27T20:43:51.074Z,100.00
2023-03-27T20:46:20.908Z,100.00
2023-03-27T20:48:53.805Z,100.00
2023-03-27T20:51:24.701Z,100.00
2023-03-27T20:53:56.226Z,100.00
2023-03-27T20:56:25.745Z,100.00
2023-03-27T20:58:53.801Z,100.00
2023-03-27T21:01:28.067Z,100.00
2023-03-27T21:03:58.626Z,100.00
2023-03-27T21:06:27.578Z,100.00
2023-03-27T21:08:55.984Z,100.00
2023-03-27T21:11:24.546Z,100.00
2023-03-27T21:13:52.806Z,100.00
2023-03-27T21:16:22.408Z,100.00
2023-03-27T21:18:50.616Z,100.00
2023-03-27T21:21:18.772Z,100.00
2023-03-27T21:23:48.340Z,100.00
2023-03-27T21:26:16.610Z,100.00
2023-03-27T21:28:44.688Z,100.00
2023-03-27T21:31:13.711Z,100.00
2023-03-27T21:33:43.728Z,100.00
2023-03-27T21:36:12.960Z,100.00
2023-03-27T21:38:41.169Z,100.00
2023-03-27T21:41:09.244Z,100.00
2023-03-27T21:43:37.193Z,100.00
2023-03-27T21:46:05.753Z,100.00
2023-03-27T21:48:33.882Z,100.00
2023-03-27T21:51:04.672Z,100.00
2023-03-27T21:53:32.967Z,100.00
2023-03-27T21:56:01.530Z,100.00
2023-03-27T21:58:29.854Z,100.00
2023-03-27T22:00:58.792Z,100.00
2023-03-27T22:03:28.013Z,100.00
2023-03-27T22:06:08.439Z,100.00
2023-03-27T22:08:41.965Z,100.00
2023-03-27T22:11:10.923Z,100.00
2023-03-27T22:13:39.893Z,100.00
2023-03-27T22:16:12.450Z,100.00
2023-03-27T22:18:40.848Z,100.00
2023-03-27T22:21:22.050Z,100.00
2023-03-27T22:23:52.813Z,100.00
2023-03-27T22:26:22.249Z,100.00
2023-03-27T22:28:52.473Z,100.00
2023-03-27T22:31:20.637Z,100.00
2023-03-27T22:33:48.994Z,100.00
2023-03-27T22:36:17.400Z,100.00
2023-03-27T22:38:45.548Z,100.00
2023-03-27T22:41:15.929Z,100.00
2023-03-27T22:43:43.865Z,100.00
2023-03-27T22:46:13.850Z,100.00
2023-03-27T22:48:43.071Z,100.00
2023-03-27T22:51:12.821Z,100.00
2023-03-27T22:53:41.729Z,100.00
2023-03-27T22:56:10.663Z,100.00
2023-03-27T22:58:40.205Z,100.00
2023-03-27T23:01:08.832Z,100.00
2023-03-27T23:03:37.375Z,100.00
2023-03-27T23:06:06.034Z,100.00
2023-03-27T23:08:34.510Z,100.00
2023-03-27T23:11:04.486Z,100.00
2023-03-27T23:13:35.973Z,100.00
2023-03-27T23:16:06.421Z,100.00
2023-03-27T23:18:34.765Z,100.00
2023-03-27T23:21:04.279Z,100.00
2023-03-27T23:23:34.104Z,100.00
2023-03-27T23:26:03.908Z,100.00
2023-03-27T23:28:35.476Z,100.00
2023-03-27T23:31:07.458Z,100.00
2023-03-27T23:33:37.596Z,100.00
2023-03-27T23:36:08.672Z,100.00
2023-03-27T23:38:37.547Z,100.00
2023-03-27T23:41:07.594Z,100.00
2023-03-27T23:43:36.460Z,100.00
2023-03-27T23:46:08.726Z,100.00
2023-03-27T23:48:37.217Z,100.00
2023-03-27T23:51:06.110Z,100.00
2023-03-27T23:53:35.234Z,100.00
2023-03-27T23:56:03.766Z,100.00
2023-03-27T23:58:33.565Z,100.00
